Seneca, Oregon
Current Conditions -  °F | °C
As of 6:55 PM on Thursday 27 Nov 2014 (Local Time) from KGCD Reporting Station
Light Rain Light Rain  
Wind Chill: 50°   Ceiling: 6500
Heat Index: 50°   Visibility: 10mi
Dew Point: 40°   Wind: 23mph
Humidity: 67%   Direction: 200°SSW
Pressure: 29.99"   Gusts: 32mph
Location:  44.13°N, 118.97°W
Report Text: KGCD 280255Z AUTO 20020G28KT 10SM -RA SCT044 BKN065 OVC080 10/04 A2999 RMK AO2 T01020044
Loading
Personal Weather Stations






























Interactive Weather Map New forecast layout! Learn more

10-Day Weather Forecast

Advertisements
Track Severe Weather on mobile